createdAt,value
2022-12-20T00:00:34.403Z,9.747418
2022-12-20T00:01:34.491Z,9.747429
2022-12-20T00:02:33.564Z,9.747214
2022-12-20T00:03:36.385Z,9.747210
2022-12-20T00:04:33.921Z,9.747335
2022-12-20T00:05:34.659Z,9.747308
2022-12-20T00:06:35.419Z,9.747328
2022-12-20T00:07:34.343Z,9.747432
2022-12-20T00:08:34.424Z,9.747455
2022-12-20T00:09:34.373Z,9.747410
2022-12-20T00:10:36.383Z,9.747388
2022-12-20T00:11:33.919Z,9.747512
2022-12-20T00:12:33.928Z,9.747356
2022-12-20T00:13:33.848Z,9.747261
2022-12-20T00:14:34.896Z,9.747316
2022-12-20T00:15:34.908Z,9.747132
2022-12-20T00:16:32.422Z,9.747230
2022-12-20T00:17:33.006Z,9.747329
2022-12-20T00:18:33.382Z,9.747269
2022-12-20T00:19:36.394Z,9.747338
2022-12-20T00:20:33.571Z,9.747229
2022-12-20T00:21:32.836Z,9.747358
2022-12-20T00:22:35.430Z,9.747455
2022-12-20T00:23:33.411Z,9.747391
2022-12-20T00:24:34.405Z,9.747394
2022-12-20T00:25:33.342Z,9.747360
2022-12-20T00:26:34.421Z,9.747297
2022-12-20T00:27:35.343Z,9.747259
2022-12-20T00:28:34.848Z,9.747390
2022-12-20T00:29:33.914Z,9.747373
2022-12-20T00:30:32.902Z,9.747264
2022-12-20T00:31:34.355Z,9.747075
2022-12-20T00:32:34.884Z,9.747053
2022-12-20T00:33:34.343Z,9.747110
2022-12-20T00:34:39.498Z,9.747372
2022-12-20T00:35:34.857Z,9.747335
2022-12-20T00:36:34.868Z,9.747518
2022-12-20T00:37:35.839Z,9.747483
2022-12-20T00:38:34.352Z,9.747420
2022-12-20T00:39:34.929Z,9.747050
2022-12-20T00:40:33.404Z,9.746556
2022-12-20T00:41:33.387Z,9.746979
2022-12-20T00:42:34.847Z,9.747057
2022-12-20T00:43:34.382Z,9.747298
2022-12-20T00:44:34.385Z,9.747741
2022-12-20T00:45:32.409Z,9.747238
2022-12-20T00:46:33.936Z,9.747370
2022-12-20T00:47:35.377Z,9.747418
2022-12-20T00:48:33.916Z,9.747420
2022-12-20T00:49:33.843Z,9.747433
2022-12-20T00:50:34.346Z,9.747385
2022-12-20T00:51:36.351Z,9.747665
2022-12-20T00:52:34.862Z,9.747438
2022-12-20T00:53:33.843Z,9.747385
2022-12-20T00:54:32.347Z,9.747393
2022-12-20T00:55:32.430Z,9.747130
2022-12-20T00:56:33.342Z,9.747424
2022-12-20T00:57:33.931Z,9.747367
2022-12-20T00:58:33.385Z,9.747437
2022-12-20T00:59:33.275Z,9.747542
2022-12-20T01:00:34.982Z,9.747561
2022-12-20T01:01:36.048Z,9.747451
2022-12-20T01:02:35.535Z,9.747408
2022-12-20T01:03:32.476Z,9.747328
2022-12-20T01:04:33.426Z,9.747334
2022-12-20T01:05:32.595Z,9.747369
2022-12-20T01:06:34.405Z,9.747375
2022-12-20T01:07:34.345Z,9.747307
2022-12-20T01:08:34.391Z,9.747255
2022-12-20T01:09:33.444Z,9.747160
2022-12-20T01:10:32.896Z,9.747227
2022-12-20T01:11:33.379Z,9.747217
2022-12-20T01:12:32.595Z,9.747201
2022-12-20T01:13:35.365Z,9.747322
2022-12-20T01:14:34.346Z,9.747431
2022-12-20T01:15:32.926Z,9.747327
2022-12-20T01:16:33.905Z,9.747287
2022-12-20T01:17:33.916Z,9.747406
2022-12-20T01:18:35.349Z,9.747377
2022-12-20T01:19:33.350Z,9.747391
2022-12-20T01:20:32.849Z,9.747330
2022-12-20T01:21:35.875Z,9.747435
2022-12-20T01:22:42.400Z,9.747444
2022-12-20T01:23:34.416Z,9.747514
2022-12-20T01:24:33.864Z,9.747501
2022-12-20T01:25:35.347Z,9.747393
2022-12-20T01:26:35.348Z,9.747396
2022-12-20T01:27:33.083Z,9.747458
2022-12-20T01:28:34.848Z,9.747437
2022-12-20T01:29:32.921Z,9.747488
2022-12-20T01:30:34.844Z,9.747476
2022-12-20T01:31:34.953Z,9.747329
2022-12-20T01:32:33.411Z,9.747322
2022-12-20T01:33:33.848Z,9.747417
2022-12-20T01:34:34.860Z,9.747459
2022-12-20T01:35:32.849Z,9.747387
2022-12-20T01:36:33.853Z,9.747385
2022-12-20T01:37:32.369Z,9.747411
2022-12-20T01:38:33.914Z,9.747382
2022-12-20T01:39:32.078Z,9.747476
2022-12-20T01:40:34.848Z,9.747435
2022-12-20T01:41:32.849Z,9.747407
2022-12-20T01:42:33.381Z,9.747374
2022-12-20T01:43:34.371Z,9.747454
2022-12-20T01:44:33.909Z,9.747404
2022-12-20T01:45:34.397Z,9.747387
2022-12-20T01:46:35.457Z,9.747424
2022-12-20T01:47:33.352Z,9.747440
2022-12-20T01:48:31.927Z,9.747455
2022-12-20T01:49:33.348Z,9.747428
2022-12-20T01:50:33.594Z,9.747491
2022-12-20T01:51:32.581Z,9.747538
2022-12-20T01:52:31.055Z,9.747513
2022-12-20T01:53:31.063Z,9.747432
2022-12-20T01:54:31.040Z,9.747499
2022-12-20T01:55:31.040Z,9.747494
2022-12-20T01:56:31.026Z,9.747455
2022-12-20T01:57:31.005Z,9.747466
2022-12-20T01:58:31.050Z,9.747472
2022-12-20T01:59:31.009Z,9.747466
2022-12-20T02:00:30.981Z,9.747458
2022-12-20T02:01:31.033Z,9.747357
2022-12-20T02:02:31.050Z,9.747368
2022-12-20T02:03:31.093Z,9.747416
2022-12-20T02:04:30.976Z,9.747382
2022-12-20T02:05:30.963Z,9.747460
2022-12-20T02:06:30.932Z,9.747445
2022-12-20T02:07:30.930Z,9.747457
2022-12-20T02:08:30.940Z,9.747447
2022-12-20T02:09:30.908Z,9.747544
2022-12-20T02:10:30.910Z,9.747448
2022-12-20T02:11:30.895Z,9.747447
2022-12-20T02:12:30.889Z,9.747493
2022-12-20T02:13:30.950Z,9.747458
2022-12-20T02:14:30.875Z,9.747470
2022-12-20T02:15:30.872Z,9.747481
2022-12-20T02:16:30.890Z,9.747445
2022-12-20T02:17:30.857Z,9.747426
2022-12-20T02:18:30.879Z,9.747537
2022-12-20T02:19:30.834Z,9.747558
2022-12-20T02:20:30.832Z,9.747467
2022-12-20T02:21:30.821Z,9.747423
2022-12-20T02:22:30.814Z,9.747447
2022-12-20T02:23:30.839Z,9.747357
2022-12-20T02:24:30.802Z,9.747430
2022-12-20T02:25:30.792Z,9.747471
2022-12-20T02:26:30.808Z,9.747301
2022-12-20T02:27:30.790Z,9.747361
2022-12-20T02:28:30.784Z,9.747486
2022-12-20T02:29:30.762Z,9.747504
2022-12-20T02:30:30.750Z,9.747512
2022-12-20T02:31:30.766Z,9.747494
2022-12-20T02:32:30.737Z,9.747475
2022-12-20T02:33:30.756Z,9.747480
2022-12-20T02:34:30.717Z,9.747444
2022-12-20T02:35:31.575Z,9.747570
2022-12-20T02:36:30.712Z,9.747564
2022-12-20T02:37:30.700Z,9.747426
2022-12-20T02:38:30.730Z,9.747494
2022-12-20T02:39:30.682Z,9.747560
2022-12-20T02:40:30.672Z,9.747467
2022-12-20T02:41:30.663Z,9.747443
2022-12-20T02:42:30.671Z,9.747369
2022-12-20T02:43:30.675Z,9.747443
2022-12-20T02:44:30.644Z,9.747443
2022-12-20T02:45:30.630Z,9.747649
2022-12-20T02:46:30.677Z,9.747613
2022-12-20T02:47:30.614Z,9.747401
2022-12-20T02:48:30.640Z,9.747218
2022-12-20T02:49:30.608Z,9.747189
2022-12-20T02:50:30.613Z,9.747426
2022-12-20T02:51:30.588Z,9.747476
2022-12-20T02:52:30.578Z,9.747516
2022-12-20T02:53:30.596Z,9.747293
2022-12-20T02:54:30.567Z,9.747354
2022-12-20T02:55:30.571Z,9.747388
2022-12-20T02:56:30.559Z,9.747491
2022-12-20T02:57:30.550Z,9.747541
2022-12-20T02:58:30.564Z,9.747499
2022-12-20T02:59:30.539Z,9.747511
2022-12-20T03:00:30.517Z,9.747311
2022-12-20T03:01:30.680Z,9.747465
2022-12-20T03:02:30.719Z,9.747494
2022-12-20T03:03:30.581Z,9.747386
2022-12-20T03:04:30.492Z,9.747319
2022-12-20T03:05:30.480Z,9.747261
2022-12-20T03:06:30.479Z,9.747371
2022-12-20T03:07:30.471Z,9.747658
2022-12-20T03:08:30.503Z,9.747633
2022-12-20T03:09:30.472Z,9.747516
2022-12-20T03:10:30.444Z,9.747459
2022-12-20T03:11:30.436Z,9.747387
2022-12-20T03:12:30.436Z,9.747377
2022-12-20T03:13:30.460Z,9.747305
2022-12-20T03:14:30.427Z,9.747363
2022-12-20T03:15:30.409Z,9.747451
2022-12-20T03:16:30.449Z,9.747383
2022-12-20T03:17:30.392Z,9.747300
2022-12-20T03:18:30.412Z,9.747059
2022-12-20T03:19:30.382Z,9.747268
2022-12-20T03:20:30.383Z,9.747122
2022-12-20T03:21:30.361Z,9.747278
2022-12-20T03:22:30.347Z,9.747290
2022-12-20T03:23:30.370Z,9.747324
2022-12-20T03:24:30.340Z,9.747288
2022-12-20T03:25:30.332Z,9.747281
2022-12-20T03:26:30.330Z,9.747179
2022-12-20T03:27:30.337Z,9.747355
2022-12-20T03:28:30.395Z,9.747358
2022-12-20T03:29:30.297Z,9.747314
2022-12-20T03:30:30.310Z,9.747393
2022-12-20T03:31:30.372Z,9.747367
2022-12-20T03:32:30.279Z,9.747373
2022-12-20T03:33:30.268Z,9.747396
2022-12-20T03:34:30.293Z,9.747313
2022-12-20T03:35:30.252Z,9.747411
2022-12-20T03:36:30.246Z,9.747346
2022-12-20T03:37:30.237Z,9.747407
2022-12-20T03:38:30.234Z,9.747417
2022-12-20T03:39:30.269Z,9.747345
2022-12-20T03:40:30.206Z,9.747332
2022-12-20T03:41:30.215Z,9.747339
2022-12-20T03:42:30.220Z,9.747381
2022-12-20T03:43:30.215Z,9.747358
2022-12-20T03:44:30.276Z,9.747264
2022-12-20T03:45:30.183Z,9.747207
2022-12-20T03:46:30.241Z,9.747314
2022-12-20T03:47:30.167Z,9.747394
2022-12-20T03:48:30.153Z,9.747386
2022-12-20T03:49:30.177Z,9.747400
2022-12-20T03:50:30.147Z,9.747298
2022-12-20T03:51:30.134Z,9.747242
2022-12-20T03:52:30.128Z,9.747290
2022-12-20T03:53:30.126Z,9.747327
2022-12-20T03:54:30.134Z,9.747260
2022-12-20T03:55:30.160Z,9.747263
2022-12-20T03:56:30.093Z,9.747307
2022-12-20T03:57:30.082Z,9.747253
2022-12-20T03:58:30.075Z,9.747250
2022-12-20T03:59:30.099Z,9.747350
2022-12-20T04:00:30.074Z,9.747450
2022-12-20T04:01:30.158Z,9.747336
2022-12-20T04:02:31.184Z,9.747353
2022-12-20T04:03:30.212Z,9.747418
2022-12-20T04:04:30.068Z,9.747311
2022-12-20T04:05:30.030Z,9.747356
2022-12-20T04:06:30.046Z,9.747379
2022-12-20T04:07:30.013Z,9.747376
2022-12-20T04:08:30.010Z,9.747362
2022-12-20T04:09:30.021Z,9.747397
2022-12-20T04:10:29.987Z,9.747438
2022-12-20T04:11:29.982Z,9.747446
2022-12-20T04:12:29.974Z,9.747293
2022-12-20T04:13:29.971Z,9.747290
2022-12-20T04:14:29.980Z,9.747415
2022-12-20T04:15:30.012Z,9.747431
2022-12-20T04:16:30.072Z,9.747162
2022-12-20T04:17:29.954Z,9.747026
2022-12-20T04:18:29.933Z,9.746913
2022-12-20T04:19:29.957Z,9.747137
2022-12-20T04:20:29.908Z,9.747090
2022-12-20T04:21:29.906Z,9.747180
2022-12-20T04:22:29.900Z,9.747247
2022-12-20T04:23:29.891Z,9.747300
2022-12-20T04:24:29.907Z,9.747198
2022-12-20T04:25:29.871Z,9.747304
2022-12-20T04:26:29.867Z,9.747258
2022-12-20T04:27:29.857Z,9.747136
2022-12-20T04:28:29.853Z,9.747188
2022-12-20T04:29:29.885Z,9.747167
2022-12-20T04:30:29.857Z,9.747211
2022-12-20T04:31:29.894Z,9.747373
2022-12-20T04:32:29.820Z,9.747499
2022-12-20T04:33:29.823Z,9.747419
2022-12-20T04:34:29.852Z,9.747442
2022-12-20T04:35:29.805Z,9.747529
2022-12-20T04:36:29.800Z,9.747510
2022-12-20T04:37:29.787Z,9.747412
2022-12-20T04:38:29.784Z,9.747355
2022-12-20T04:39:29.814Z,9.747396
2022-12-20T04:40:29.757Z,9.747210
2022-12-20T04:41:29.757Z,9.747375
2022-12-20T04:42:29.747Z,9.747527
2022-12-20T04:43:29.741Z,9.747568
2022-12-20T04:44:29.762Z,9.747538
2022-12-20T04:45:29.724Z,9.747527
2022-12-20T04:46:29.779Z,9.747362
2022-12-20T04:47:29.723Z,9.747477
2022-12-20T04:48:55.747Z,9.747445
2022-12-20T04:49:31.726Z,9.747392
2022-12-20T04:50:29.695Z,9.747437
2022-12-20T04:51:29.688Z,9.747313
2022-12-20T04:52:29.673Z,9.747567
2022-12-20T04:53:29.661Z,9.747583
2022-12-20T04:54:29.666Z,9.747603
2022-12-20T04:55:29.675Z,9.747589
2022-12-20T04:56:29.641Z,9.747715
2022-12-20T04:57:29.627Z,9.747704
2022-12-20T04:58:29.632Z,9.747664
2022-12-20T04:59:29.623Z,9.747731
2022-12-20T05:00:29.639Z,9.747568
2022-12-20T05:01:29.728Z,9.747876
2022-12-20T05:02:29.670Z,9.747795
2022-12-20T05:03:29.660Z,9.747714
2022-12-20T05:04:35.313Z,9.747634
2022-12-20T05:05:31.603Z,9.747679
2022-12-20T05:06:29.600Z,9.747662
2022-12-20T05:07:29.553Z,9.747472
2022-12-20T05:08:30.554Z,9.747355
2022-12-20T05:09:29.547Z,9.747463
2022-12-20T05:10:29.560Z,9.747601
2022-12-20T05:11:29.531Z,9.747730
2022-12-20T05:12:29.526Z,9.747552
2022-12-20T05:13:29.546Z,9.747673
2022-12-20T05:14:29.515Z,9.747729
2022-12-20T05:15:29.528Z,9.747940
2022-12-20T05:16:29.543Z,9.747717
2022-12-20T05:17:29.524Z,9.747567
2022-12-20T05:18:29.480Z,9.747706
2022-12-20T05:19:29.477Z,9.747904
2022-12-20T05:20:29.488Z,9.747772
2022-12-20T05:21:29.460Z,9.747664
2022-12-20T05:22:29.453Z,9.747740
2022-12-20T05:23:29.445Z,9.747861
2022-12-20T05:24:29.432Z,9.747751
2022-12-20T05:25:29.492Z,9.747975
2022-12-20T05:26:29.422Z,9.747833
2022-12-20T05:27:29.410Z,9.747581
2022-12-20T05:28:29.406Z,9.747563
2022-12-20T05:29:29.401Z,9.747618
2022-12-20T05:30:30.421Z,9.747550
2022-12-20T05:31:29.428Z,9.747235
2022-12-20T05:32:29.374Z,9.747140
2022-12-20T05:33:34.047Z,9.747085
2022-12-20T05:34:31.375Z,9.747317
2022-12-20T05:35:29.397Z,9.747409
2022-12-20T05:36:29.343Z,9.747466
2022-12-20T05:37:29.327Z,9.747428
2022-12-20T05:38:29.347Z,9.747406
2022-12-20T05:39:30.316Z,9.747455
2022-12-20T05:40:29.340Z,9.747417
2022-12-20T05:41:29.305Z,9.747406
2022-12-20T05:42:29.288Z,9.747344
2022-12-20T05:43:29.289Z,9.747369
2022-12-20T05:44:29.305Z,9.747476
2022-12-20T05:45:29.295Z,9.747501
2022-12-20T05:46:29.331Z,9.747632
2022-12-20T05:47:29.332Z,9.747641
2022-12-20T05:48:29.235Z,9.747508
2022-12-20T05:49:29.240Z,9.747479
2022-12-20T05:50:29.283Z,9.747698
2022-12-20T05:51:29.219Z,9.747675
2022-12-20T05:52:29.211Z,9.747392
2022-12-20T05:53:29.215Z,9.747329
2022-12-20T05:54:29.198Z,9.747510
2022-12-20T05:55:29.221Z,9.747487
2022-12-20T05:56:29.178Z,9.747334
2022-12-20T05:57:29.176Z,9.747290
2022-12-20T05:58:29.174Z,9.747355
2022-12-20T05:59:29.185Z,9.747474
2022-12-20T06:00:29.185Z,9.747576
2022-12-20T06:01:29.218Z,9.747462
2022-12-20T06:02:29.442Z,9.747540
2022-12-20T06:03:29.251Z,9.747383
2022-12-20T06:04:29.125Z,9.747452
2022-12-20T06:05:29.135Z,9.747468
2022-12-20T06:06:29.100Z,9.747499
2022-12-20T06:07:29.179Z,9.747490
2022-12-20T06:08:29.089Z,9.747418
2022-12-20T06:09:29.088Z,9.747442
2022-12-20T06:10:29.104Z,9.747188
2022-12-20T06:11:30.365Z,9.747120
2022-12-20T06:12:30.077Z,9.747171
2022-12-20T06:13:29.057Z,9.747260
2022-12-20T06:14:29.049Z,9.747519
2022-12-20T06:15:29.042Z,9.747389
2022-12-20T06:16:29.084Z,9.747344
2022-12-20T06:17:29.027Z,9.747411
2022-12-20T06:18:29.024Z,9.747284
2022-12-20T06:19:29.037Z,9.747419
2022-12-20T06:20:29.015Z,9.747447
2022-12-20T06:21:29.112Z,9.747375
2022-12-20T06:22:28.986Z,9.747306
2022-12-20T06:23:28.990Z,9.747342
2022-12-20T06:24:28.978Z,9.747277
2022-12-20T06:25:28.975Z,9.747228
2022-12-20T06:26:28.996Z,9.747481
2022-12-20T06:27:28.956Z,9.747419
2022-12-20T06:28:28.947Z,9.747302
2022-12-20T06:29:28.945Z,9.747354
2022-12-20T06:30:33.668Z,9.747210
2022-12-20T06:31:31.003Z,9.747277
2022-12-20T06:32:28.946Z,9.747386
2022-12-20T06:33:28.922Z,9.747423
2022-12-20T06:34:28.901Z,9.747355
2022-12-20T06:35:28.906Z,9.747230
2022-12-20T06:36:28.920Z,9.747399
2022-12-20T06:37:28.876Z,9.747349
2022-12-20T06:38:28.874Z,9.747396
2022-12-20T06:39:28.870Z,9.747305
2022-12-20T06:40:28.856Z,9.747385
2022-12-20T06:41:28.878Z,9.747384
2022-12-20T06:42:28.832Z,9.747255
2022-12-20T06:43:28.845Z,9.747331
2022-12-20T06:44:28.827Z,9.747340
2022-12-20T06:45:28.854Z,9.747359
2022-12-20T06:46:28.869Z,9.747381
2022-12-20T06:47:28.806Z,9.747329
2022-12-20T06:48:28.824Z,9.747368
2022-12-20T06:49:28.784Z,9.747327
2022-12-20T06:50:28.778Z,9.747292
2022-12-20T06:51:28.808Z,9.747400
2022-12-20T06:52:28.771Z,9.747374
2022-12-20T06:53:28.762Z,9.747394
2022-12-20T06:54:28.744Z,9.747531
2022-12-20T06:55:28.736Z,9.747533
2022-12-20T06:56:28.754Z,9.747429
2022-12-20T06:57:28.729Z,9.747353
2022-12-20T06:58:28.724Z,9.747439
2022-12-20T06:59:28.713Z,9.747529
2022-12-20T07:00:28.702Z,9.747511
2022-12-20T07:01:28.839Z,9.747453
2022-12-20T07:02:28.895Z,9.747582
2022-12-20T07:03:28.803Z,9.747499
2022-12-20T07:04:29.669Z,9.747486
2022-12-20T07:05:28.662Z,9.747480
2022-12-20T07:06:28.677Z,9.747416
2022-12-20T07:07:28.650Z,9.747299
2022-12-20T07:08:28.641Z,9.747369
2022-12-20T07:09:28.640Z,9.747342
2022-12-20T07:10:28.619Z,9.747412
2022-12-20T07:11:28.703Z,9.747350
2022-12-20T07:12:28.620Z,9.747331
2022-12-20T07:13:28.629Z,9.747348
2022-12-20T07:14:28.606Z,9.747405
2022-12-20T07:15:28.579Z,9.747415
2022-12-20T07:16:29.667Z,9.747346
2022-12-20T07:17:28.571Z,9.747396
2022-12-20T07:18:28.568Z,9.747452
2022-12-20T07:19:28.635Z,9.747416
2022-12-20T07:20:28.545Z,9.747260
2022-12-20T07:21:28.561Z,9.747332
2022-12-20T07:22:28.538Z,9.747394
2022-12-20T07:23:28.573Z,9.747340
2022-12-20T07:24:28.521Z,9.747396
2022-12-20T07:25:28.518Z,9.747362
2022-12-20T07:26:28.532Z,9.747347
2022-12-20T07:27:28.493Z,9.747295
2022-12-20T07:28:28.489Z,9.747293
2022-12-20T07:29:28.485Z,9.747385
2022-12-20T07:30:28.473Z,9.747445
2022-12-20T07:31:28.527Z,9.747441
2022-12-20T07:32:28.479Z,9.747395
2022-12-20T07:33:28.458Z,9.747427
2022-12-20T07:34:28.440Z,9.747427
2022-12-20T07:35:28.465Z,9.747339
2022-12-20T07:36:28.454Z,9.747356
2022-12-20T07:37:28.423Z,9.747342
2022-12-20T07:38:28.409Z,9.747391
2022-12-20T07:39:28.407Z,9.747368
2022-12-20T07:40:28.553Z,9.747233
2022-12-20T07:41:28.431Z,9.747280
2022-12-20T07:42:36.148Z,9.747380
2022-12-20T07:43:29.372Z,9.747385
2022-12-20T07:44:28.374Z,9.747430
2022-12-20T07:45:28.420Z,9.747355
2022-12-20T07:46:28.487Z,9.747356
2022-12-20T07:47:28.347Z,9.747346
2022-12-20T07:48:28.335Z,9.747286
2022-12-20T07:49:28.332Z,9.747394
2022-12-20T07:50:28.489Z,9.747402
2022-12-20T07:51:29.339Z,9.747407
2022-12-20T07:52:28.311Z,9.747444
2022-12-20T07:53:28.317Z,9.747406
2022-12-20T07:54:28.286Z,9.747409
2022-12-20T07:55:29.284Z,9.747411
2022-12-20T07:56:28.302Z,9.747448
2022-12-20T07:57:28.271Z,9.747228
2022-12-20T07:58:28.288Z,9.747423
2022-12-20T07:59:28.256Z,9.747375
2022-12-20T08:00:28.247Z,9.747414
2022-12-20T08:01:28.407Z,9.747441
2022-12-20T08:02:28.348Z,9.747394
2022-12-20T08:03:28.410Z,9.747380
2022-12-20T08:04:28.237Z,9.747364
2022-12-20T08:05:28.207Z,9.747408
2022-12-20T08:06:28.255Z,9.747405
2022-12-20T08:07:28.196Z,9.747467
2022-12-20T08:08:28.190Z,9.747400
2022-12-20T08:09:28.181Z,9.747297
2022-12-20T08:10:28.206Z,9.747478
2022-12-20T08:11:28.185Z,9.747333
2022-12-20T08:12:28.169Z,9.747310
2022-12-20T08:13:28.151Z,9.747504
2022-12-20T08:14:28.156Z,9.747520
2022-12-20T08:15:28.159Z,9.747538
2022-12-20T08:16:28.189Z,9.747445
2022-12-20T08:17:29.127Z,9.747313
2022-12-20T08:18:28.110Z,9.747521
2022-12-20T08:19:32.216Z,9.747568
2022-12-20T08:20:29.165Z,9.747504
2022-12-20T08:21:28.122Z,9.747355
2022-12-20T08:22:28.105Z,9.747316
2022-12-20T08:23:28.077Z,9.747488
2022-12-20T08:24:28.067Z,9.747505
2022-12-20T08:25:28.054Z,9.747590
2022-12-20T08:26:28.058Z,9.747463
2022-12-20T08:27:28.070Z,9.747433
2022-12-20T08:28:28.023Z,9.747427
2022-12-20T08:29:29.052Z,9.747568
2022-12-20T08:30:28.012Z,9.747500
2022-12-20T08:31:28.102Z,9.747432
2022-12-20T08:32:28.028Z,9.747499
2022-12-20T08:33:28.003Z,9.747466
2022-12-20T08:34:27.999Z,9.747372
2022-12-20T08:35:27.974Z,9.747462
2022-12-20T08:36:27.978Z,9.747429
2022-12-20T08:37:28.011Z,9.747355
2022-12-20T08:38:27.960Z,9.747320
2022-12-20T08:39:27.947Z,9.747503
2022-12-20T08:40:27.940Z,9.747464
2022-12-20T08:41:27.934Z,9.747532
2022-12-20T08:42:27.960Z,9.747550
2022-12-20T08:43:27.919Z,9.747367
2022-12-20T08:44:27.919Z,9.747358
2022-12-20T08:45:27.904Z,9.747390
2022-12-20T08:46:27.981Z,9.747520
2022-12-20T08:47:27.918Z,9.747535
2022-12-20T08:48:27.899Z,9.747470
2022-12-20T08:49:27.882Z,9.747334
2022-12-20T08:50:27.874Z,9.747403
2022-12-20T08:51:27.891Z,9.747463
2022-12-20T08:52:27.880Z,9.747555
2022-12-20T08:53:27.847Z,9.747529
2022-12-20T08:54:27.857Z,9.747574
2022-12-20T08:55:27.994Z,9.747759
2022-12-20T08:56:28.823Z,9.747757
2022-12-20T08:57:27.844Z,9.747707
2022-12-20T08:58:27.818Z,9.747632
2022-12-20T08:59:27.806Z,9.747672
2022-12-20T09:00:27.796Z,9.747598
2022-12-20T09:01:27.940Z,9.747411
2022-12-20T09:02:27.940Z,9.747227
2022-12-20T09:03:27.818Z,9.747517
2022-12-20T09:04:27.785Z,9.747525
2022-12-20T09:05:27.763Z,9.747299
2022-12-20T09:06:27.752Z,9.747452
2022-12-20T09:07:27.784Z,9.747175
2022-12-20T09:08:27.754Z,9.747347
2022-12-20T09:09:27.729Z,9.747583
2022-12-20T09:10:27.728Z,9.747589
2022-12-20T09:11:27.720Z,9.747414
2022-12-20T09:12:27.726Z,9.747573
2022-12-20T09:13:27.792Z,9.747451
2022-12-20T09:14:27.723Z,9.747395
2022-12-20T09:15:27.777Z,9.747538
2022-12-20T09:16:27.741Z,9.747484
2022-12-20T09:17:27.696Z,9.747411
2022-12-20T09:18:27.662Z,9.747354
2022-12-20T09:19:27.660Z,9.747129
2022-12-20T09:20:27.647Z,9.747024
2022-12-20T09:21:27.642Z,9.746852
2022-12-20T09:22:27.663Z,9.746731
2022-12-20T09:23:27.623Z,9.747508
2022-12-20T09:24:27.613Z,9.747505
2022-12-20T09:25:27.612Z,9.747460
2022-12-20T09:26:27.620Z,9.747432
2022-12-20T09:27:27.630Z,9.747453
2022-12-20T09:28:27.591Z,9.747401
2022-12-20T09:29:35.123Z,9.747387
2022-12-20T09:30:29.580Z,9.747458
2022-12-20T09:31:27.646Z,9.747359
2022-12-20T09:32:27.594Z,9.747368
2022-12-20T09:33:27.562Z,9.747378
2022-12-20T09:34:27.543Z,9.747375
2022-12-20T09:35:27.548Z,9.747422
2022-12-20T09:36:27.543Z,9.747457
2022-12-20T09:37:29.528Z,9.747458
2022-12-20T09:38:27.519Z,9.747312
2022-12-20T09:39:27.522Z,9.747365
2022-12-20T09:40:27.509Z,9.747363
2022-12-20T09:41:27.502Z,9.747447
2022-12-20T09:42:27.512Z,9.747561
2022-12-20T09:43:27.482Z,9.747382
2022-12-20T09:44:27.478Z,9.747443
2022-12-20T09:45:27.572Z,9.747505
2022-12-20T09:46:27.529Z,9.747558
2022-12-20T09:47:27.471Z,9.747308
2022-12-20T09:48:27.449Z,9.747479
2022-12-20T09:49:27.438Z,9.747443
2022-12-20T09:50:27.439Z,9.747632
2022-12-20T09:51:27.425Z,9.747578
2022-12-20T09:52:27.464Z,9.747497
2022-12-20T09:53:27.406Z,9.747418
2022-12-20T09:54:27.410Z,9.747540
2022-12-20T09:55:27.420Z,9.747489
2022-12-20T09:56:27.391Z,9.747526
2022-12-20T09:57:27.412Z,9.747455
2022-12-20T09:58:27.369Z,9.747425
2022-12-20T09:59:27.360Z,9.747418
2022-12-20T10:00:27.342Z,9.747482
2022-12-20T10:01:32.584Z,9.747440
2022-12-20T10:02:57.118Z,9.747345
2022-12-20T10:03:29.570Z,9.746482
2022-12-20T10:04:27.644Z,9.746535
2022-12-20T10:05:27.431Z,9.747281
2022-12-20T10:06:27.322Z,9.747452
2022-12-20T10:07:27.329Z,9.747530
2022-12-20T10:08:27.319Z,9.747540
2022-12-20T10:09:27.276Z,9.747463
2022-12-20T10:10:27.277Z,9.747644
2022-12-20T10:11:29.610Z,9.747624
2022-12-20T10:12:28.294Z,9.747656
2022-12-20T10:13:27.247Z,9.747590
2022-12-20T10:14:27.276Z,9.747461
2022-12-20T10:15:27.240Z,9.747395
2022-12-20T10:16:27.328Z,9.747542
2022-12-20T10:17:32.239Z,9.747766
2022-12-20T10:18:29.237Z,9.747491
2022-12-20T10:19:27.212Z,9.747514
2022-12-20T10:20:27.205Z,9.747393
2022-12-20T10:21:27.190Z,9.747486
2022-12-20T10:22:27.185Z,9.747544
2022-12-20T10:23:33.032Z,9.747534
2022-12-20T10:24:29.185Z,9.747542
2022-12-20T10:25:27.157Z,9.747566
2022-12-20T10:26:27.176Z,9.747338
2022-12-20T10:27:27.152Z,9.747440
2022-12-20T10:28:27.171Z,9.747307
2022-12-20T10:29:27.124Z,9.747423
2022-12-20T10:30:27.129Z,9.747455
2022-12-20T10:31:27.175Z,9.747608
2022-12-20T10:32:27.142Z,9.747635
2022-12-20T10:33:27.123Z,9.747701
2022-12-20T10:34:31.686Z,9.747600
2022-12-20T10:35:29.112Z,9.747794
2022-12-20T10:36:27.338Z,9.747764
2022-12-20T10:37:27.073Z,9.747831
2022-12-20T10:38:27.092Z,9.747389
2022-12-20T10:39:27.046Z,9.747377
2022-12-20T10:40:46.368Z,9.747458
2022-12-20T10:41:29.030Z,9.747717
2022-12-20T10:42:27.076Z,9.747587
2022-12-20T10:43:27.044Z,9.747518
2022-12-20T10:44:27.023Z,9.747448
2022-12-20T10:45:32.554Z,9.747576
2022-12-20T10:46:29.042Z,9.747513
2022-12-20T10:47:26.983Z,9.747472
2022-12-20T10:48:27.010Z,9.747415
2022-12-20T10:49:26.976Z,9.747211
2022-12-20T10:50:26.965Z,9.746881
2022-12-20T10:51:26.975Z,9.747124
2022-12-20T10:52:26.945Z,9.747237
2022-12-20T10:53:27.947Z,9.747158
2022-12-20T10:54:27.244Z,9.747280
2022-12-20T10:55:26.940Z,9.747525
2022-12-20T10:56:26.914Z,9.747556
2022-12-20T10:57:26.917Z,9.747561
2022-12-20T10:58:26.913Z,9.747283
2022-12-20T10:59:26.922Z,9.747470
2022-12-20T11:00:26.882Z,9.747532
2022-12-20T11:01:26.979Z,9.747474
2022-12-20T11:02:29.268Z,9.747262
2022-12-20T11:03:28.036Z,9.747393
2022-12-20T11:04:26.926Z,9.747469
2022-12-20T11:05:26.860Z,9.747405
2022-12-20T11:06:26.845Z,9.747333
2022-12-20T11:07:26.941Z,9.747313
2022-12-20T11:08:40.457Z,9.747464
2022-12-20T11:09:28.863Z,9.747635
2022-12-20T11:10:26.806Z,9.747552
2022-12-20T11:11:26.817Z,9.747378
2022-12-20T11:12:26.793Z,9.747330
2022-12-20T11:13:27.786Z,9.747397
2022-12-20T11:14:26.814Z,9.747388
2022-12-20T11:15:34.432Z,9.747329
2022-12-20T11:16:27.799Z,9.747350
2022-12-20T11:17:26.841Z,9.747434
2022-12-20T11:18:26.752Z,9.747444
2022-12-20T11:19:26.800Z,9.747371
2022-12-20T11:20:26.769Z,9.747268
2022-12-20T11:21:28.588Z,9.747359
2022-12-20T11:22:27.715Z,9.747223
2022-12-20T11:23:26.740Z,9.747343
2022-12-20T11:24:26.745Z,9.747301
2022-12-20T11:25:26.767Z,9.747337
2022-12-20T11:26:26.697Z,9.747375
2022-12-20T11:27:26.696Z,9.747313
2022-12-20T11:28:26.678Z,9.747336
2022-12-20T11:29:26.740Z,9.747259
2022-12-20T11:30:26.670Z,9.747235
2022-12-20T11:31:27.702Z,9.747472
2022-12-20T11:32:26.664Z,9.747489
2022-12-20T11:33:26.641Z,9.747417
2022-12-20T11:34:26.671Z,9.747480
2022-12-20T11:35:26.635Z,9.747027
2022-12-20T11:36:26.614Z,9.747362
2022-12-20T11:37:26.601Z,9.747280
2022-12-20T11:38:26.606Z,9.747346
2022-12-20T11:39:26.641Z,9.747295
2022-12-20T11:40:26.584Z,9.747110
2022-12-20T11:41:26.590Z,9.747239
2022-12-20T11:42:26.594Z,9.747211
2022-12-20T11:43:26.575Z,9.747455
2022-12-20T11:44:27.406Z,9.747336